Time,TemperatureF,DewpointF,PressureIn,WindDirection,WindDirectionDegrees,WindSpeedMPH,WindSpeedGustMPH,Humidity,HourlyPrecipIn,Conditions,Clouds,dailyrainin,SolarRadiationWatts/m^2,SoftwareType,DateUTC
2014-03-06 00:00:00,63.4,60.7,29.97,East,90,3.0,10.0,91,0.00,,---,0.00,0.00,VWS V14.01,2014-03-06 05:00:00,
2014-03-06 01:00:00,62.0,59.7,29.92,ENE,68,3.0,10.0,92,0.00,,---,0.00,0.00,VWS V14.01,2014-03-06 06:00:00,
2014-03-06 02:00:00,62.0,59.7,29.92,East,90,2.0,10.0,92,0.00,,---,0.00,0.00,VWS V14.01,2014-03-06 07:00:00,
2014-03-06 03:00:00,62.3,60.2,29.90,East,90,2.0,9.0,93,0.00,,---,0.00,0.00,VWS V14.01,2014-03-06 08:00:00,
2014-03-06 04:00:00,62.5,60.5,29.92,ENE,68,2.0,9.0,93,0.00,,---,0.00,0.00,VWS V14.01,2014-03-06 09:00:00,
2014-03-06 05:00:00,62.4,60.3,29.91,East,90,2.0,8.0,93,0.00,,---,0.00,0.00,VWS V14.01,2014-03-06 10:00:00,
2014-03-06 06:00:00,62.2,60.2,29.92,East,90,2.0,10.0,93,0.00,,---,0.00,1.00,VWS V14.01,2014-03-06 11:00:00,
2014-03-06 07:00:00,62.3,60.6,29.91,ESE,112,3.0,9.0,94,0.00,,---,0.00,14.00,VWS V14.01,2014-03-06 12:00:00,
2014-03-06 08:00:00,62.7,61.2,29.93,SE,135,1.0,6.0,95,0.00,,---,0.00,16.00,VWS V14.01,2014-03-06 13:00:00,
2014-03-06 09:00:00,62.8,61.7,29.93,NE,45,0.0,6.0,96,0.00,,---,0.00,28.00,VWS V14.01,2014-03-06 14:00:00,
2014-03-06 10:00:00,62.9,61.8,29.94,ENE,68,1.0,8.0,96,0.00,,---,0.00,32.00,VWS V14.01,2014-03-06 15:00:00,
2014-03-06 11:00:00,63.3,62.1,29.90,ENE,68,1.0,8.0,96,0.00,,---,0.00,17.00,VWS V14.01,2014-03-06 16:00:00,
2014-03-06 12:00:00,64.0,63.1,29.87,SSE,158,2.0,9.0,97,0.00,,---,0.00,36.00,VWS V14.01,2014-03-06 17:00:00,
2014-03-06 13:00:00,65.6,64.4,29.75,SSE,158,5.0,15.0,96,0.00,,---,0.00,76.00,VWS V14.01,2014-03-06 18:00:00,
2014-03-06 14:00:00,66.9,64.5,29.75,South,180,3.0,9.0,92,0.00,,---,0.00,146.00,VWS V14.01,2014-03-06 19:00:00,
2014-03-06 15:00:00,69.3,66.2,29.76,WSW,248,1.0,8.0,90,0.00,,---,0.00,175.00,VWS V14.01,2014-03-06 20:00:00,
2014-03-06 16:00:00,69.9,65.9,29.77,WSW,248,2.0,12.0,87,0.00,,---,0.00,132.00,VWS V14.01,2014-03-06 21:00:00,
2014-03-06 17:00:00,68.9,65.5,29.78,WSW,248,3.0,12.0,89,0.00,,---,0.00,65.00,VWS V14.01,2014-03-06 22:00:00,
2014-03-06 18:00:00,68.4,65.4,29.80,WSW,248,1.0,14.0,90,0.00,,---,0.00,2.00,VWS V14.01,2014-03-06 23:00:00,
2014-03-06 19:00:00,68.0,64.6,29.82,WNW,292,1.0,8.0,89,0.00,,---,0.00,0.00,VWS V14.01,2014-03-07 00:00:00,
2014-03-06 20:00:00,66.1,63.7,29.82,WNW,292,0.0,5.0,92,0.00,,---,0.00,0.00,VWS V14.01,2014-03-07 01:00:00,
2014-03-06 21:00:00,64.7,62.9,29.81,NNW,338,0.0,2.0,94,0.00,,---,0.00,0.00,VWS V14.01,2014-03-07 02:00:00,
2014-03-06 22:00:00,63.7,62.5,29.81,NNW,338,0.0,1.0,96,0.00,,---,0.00,0.00,VWS V14.01,2014-03-07 03:00:00,
2014-03-06 23:00:00,64.4,63.2,29.79,NNW,338,0.0,2.0,96,0.00,,---,0.00,0.00,VWS V14.01,2014-03-07 04:00:00,